createdAt,value
2018-09-26T00:02:10.943Z,63.29
2018-09-26T00:04:54.031Z,63.08
2018-09-26T00:07:22.426Z,62.53
2018-09-26T00:09:50.995Z,63.27
2018-09-26T00:12:19.376Z,61.88
2018-09-26T00:14:47.751Z,60.96
2018-09-26T00:17:16.110Z,60.67
2018-09-26T00:19:44.515Z,62.34
2018-09-26T00:22:12.902Z,62.14
2018-09-26T00:24:41.332Z,61.91
2018-09-26T00:27:09.702Z,61.30
2018-09-26T00:29:38.128Z,62.91
2018-09-26T00:32:06.477Z,62.71
2018-09-26T00:34:34.874Z,62.29
2018-09-26T00:37:03.274Z,62.36
2018-09-26T00:39:31.598Z,62.05
2018-09-26T00:42:00.004Z,61.32
2018-09-26T00:44:28.371Z,60.97
2018-09-26T00:46:56.793Z,60.03
2018-09-26T00:49:25.271Z,61.88
2018-09-26T00:51:54.213Z,60.64
2018-09-26T00:54:22.850Z,61.90
2018-09-26T00:56:51.187Z,60.94
2018-09-26T00:59:19.601Z,60.77
2018-09-26T01:01:47.950Z,60.85
2018-09-26T01:04:16.352Z,60.97
2018-09-26T01:06:44.838Z,61.10
2018-09-26T01:09:13.243Z,60.03
2018-09-26T01:11:41.702Z,60.48
2018-09-26T01:14:10.112Z,59.51
2018-09-26T01:16:38.673Z,57.47
2018-09-26T01:19:07.118Z,59.65
2018-09-26T01:21:35.543Z,57.83
2018-09-26T01:24:03.967Z,57.67
2018-09-26T01:26:32.495Z,57.07
2018-09-26T01:29:00.949Z,54.78
2018-09-26T01:31:29.339Z,55.00
2018-09-26T01:33:57.735Z,55.46
2018-09-26T01:36:26.203Z,54.57
2018-09-26T01:38:54.599Z,53.86
2018-09-26T01:41:23.159Z,53.95
2018-09-26T01:43:51.471Z,53.46
2018-09-26T01:46:20.125Z,53.53
2018-09-26T01:48:48.645Z,51.57
2018-09-26T01:51:17.061Z,51.97
2018-09-26T01:53:45.506Z,49.46
2018-09-26T01:56:13.935Z,50.36
2018-09-26T01:58:42.347Z,53.26
2018-09-26T02:01:10.882Z,53.20
2018-09-26T02:03:39.340Z,52.00
2018-09-26T02:06:08.034Z,51.73
2018-09-26T02:08:36.491Z,51.44
2018-09-26T02:11:04.980Z,51.71
2018-09-26T02:13:33.395Z,50.03
2018-09-26T02:16:01.922Z,50.47
2018-09-26T02:18:30.549Z,52.22
2018-09-26T02:20:58.975Z,50.51
2018-09-26T02:23:27.426Z,50.70
2018-09-26T02:25:55.935Z,50.30
2018-09-26T02:28:24.343Z,50.63
2018-09-26T02:30:52.916Z,51.18
2018-09-26T02:33:21.375Z,50.14
2018-09-26T02:35:50.034Z,50.49
2018-09-26T02:38:18.430Z,49.91
2018-09-26T02:40:46.810Z,49.63
2018-09-26T02:43:15.220Z,50.05
2018-09-26T02:45:43.704Z,48.16
2018-09-26T02:48:16.595Z,50.76
2018-09-26T02:50:45.055Z,49.93
2018-09-26T02:53:13.547Z,50.02
2018-09-26T02:55:42.073Z,48.87
2018-09-26T02:58:10.471Z,48.27
2018-09-26T03:00:38.937Z,48.77
2018-09-26T03:03:07.377Z,49.87
2018-09-26T03:05:35.828Z,49.41
2018-09-26T03:08:04.340Z,47.92
2018-09-26T03:10:32.855Z,48.02
2018-09-26T03:13:01.231Z,49.15
2018-09-26T03:15:29.831Z,49.22
2018-09-26T03:17:58.287Z,50.96
2018-09-26T03:20:26.637Z,47.85
2018-09-26T03:23:01.708Z,48.49
2018-09-26T03:25:30.189Z,47.44
2018-09-26T03:27:58.628Z,48.02
2018-09-26T03:30:27.138Z,45.37
2018-09-26T03:32:55.547Z,48.01
2018-09-26T03:35:23.937Z,46.77
2018-09-26T03:37:52.452Z,46.78
2018-09-26T03:40:21.260Z,46.84
2018-09-26T03:42:49.655Z,48.32
2018-09-26T03:45:18.026Z,48.53
2018-09-26T03:47:46.392Z,49.84
2018-09-26T03:50:14.757Z,47.82
2018-09-26T03:52:43.096Z,48.35
2018-09-26T03:55:11.455Z,48.42
2018-09-26T03:57:39.818Z,48.15
2018-09-26T04:00:08.199Z,48.38
2018-09-26T04:02:36.544Z,48.88
2018-09-26T04:05:04.948Z,48.06
2018-09-26T04:07:33.253Z,49.12
2018-09-26T04:10:01.598Z,47.88
2018-09-26T04:12:29.994Z,49.08
2018-09-26T04:14:58.337Z,48.54
2018-09-26T04:17:26.729Z,49.17
2018-09-26T04:19:55.111Z,48.05
2018-09-26T04:22:23.428Z,48.73
2018-09-26T04:24:52.362Z,49.08
2018-09-26T04:27:20.913Z,48.30
2018-09-26T04:29:49.460Z,49.77
2018-09-26T04:32:17.915Z,49.63
2018-09-26T04:34:46.303Z,50.32
2018-09-26T04:37:14.685Z,49.12
2018-09-26T04:39:43.076Z,50.34
2018-09-26T04:42:11.395Z,49.18
2018-09-26T04:44:39.810Z,48.54
2018-09-26T04:47:08.214Z,50.24
2018-09-26T04:49:37.138Z,49.03
2018-09-26T04:52:05.503Z,51.18
2018-09-26T04:54:35.824Z,49.49
2018-09-26T04:57:04.220Z,48.79
2018-09-26T04:59:32.607Z,49.29
2018-09-26T05:02:01.019Z,47.98
2018-09-26T05:04:29.418Z,49.90
2018-09-26T05:06:57.838Z,49.27
2018-09-26T05:09:26.256Z,47.93
2018-09-26T05:11:54.694Z,47.44
2018-09-26T05:14:23.070Z,50.57
2018-09-26T05:16:51.463Z,47.37
2018-09-26T05:19:19.905Z,45.48
2018-09-26T05:21:48.650Z,45.54
2018-09-26T05:24:17.119Z,43.60
2018-09-26T05:26:46.077Z,42.61
2018-09-26T05:29:14.481Z,44.02
2018-09-26T05:31:42.836Z,45.36
2018-09-26T05:34:11.278Z,44.48
2018-09-26T05:36:39.659Z,43.81
2018-09-26T05:39:09.723Z,45.00
2018-09-26T05:41:38.257Z,43.81
2018-09-26T05:44:06.935Z,44.06
2018-09-26T05:46:35.374Z,43.14
2018-09-26T05:49:04.121Z,44.02
2018-09-26T05:51:32.492Z,42.43
2018-09-26T05:54:03.918Z,42.51
2018-09-26T05:56:32.778Z,41.94
2018-09-26T05:59:01.205Z,40.16
2018-09-26T06:01:29.738Z,41.44
2018-09-26T06:03:58.221Z,42.40
2018-09-26T06:06:26.761Z,41.13
2018-09-26T06:08:55.792Z,41.31
2018-09-26T06:14:04.302Z,42.87
2018-09-26T06:16:32.692Z,40.73
2018-09-26T06:19:01.127Z,41.67
2018-09-26T06:21:29.507Z,39.55
2018-09-26T06:23:58.897Z,39.15
2018-09-26T06:26:27.693Z,39.76
2018-09-26T06:28:56.428Z,39.06
2018-09-26T06:31:24.823Z,38.55
2018-09-26T06:33:53.239Z,38.51
2018-09-26T06:36:21.788Z,38.15
2018-09-26T06:38:50.283Z,39.50
2018-09-26T06:41:19.691Z,37.91
2018-09-26T06:43:48.265Z,37.80
2018-09-26T06:46:16.747Z,37.18
2018-09-26T06:48:45.123Z,38.34
2018-09-26T06:51:13.723Z,37.12
2018-09-26T06:53:42.181Z,36.13
2018-09-26T06:56:10.672Z,36.22
2018-09-26T06:58:39.132Z,36.08
2018-09-26T07:01:07.879Z,35.64
2018-09-26T07:03:36.342Z,34.92
2018-09-26T07:06:04.968Z,34.67
2018-09-26T07:08:33.414Z,34.22
2018-09-26T07:11:01.901Z,34.92
2018-09-26T07:13:30.458Z,34.64
2018-09-26T07:15:58.922Z,34.57
2018-09-26T07:18:27.431Z,34.20
2018-09-26T07:20:55.910Z,35.92
2018-09-26T07:23:24.337Z,35.62
2018-09-26T07:25:52.823Z,35.19
2018-09-26T07:28:21.271Z,34.14
2018-09-26T07:30:49.704Z,35.57
2018-09-26T07:33:18.135Z,34.32
2018-09-26T07:35:46.579Z,33.01
2018-09-26T07:38:15.184Z,34.06
2018-09-26T07:40:43.610Z,32.72
2018-09-26T07:43:12.277Z,32.96
2018-09-26T07:45:40.759Z,33.65
2018-09-26T07:48:09.217Z,31.74
2018-09-26T07:50:37.623Z,32.27
2018-09-26T07:53:06.249Z,31.61
2018-09-26T07:55:34.611Z,34.31
2018-09-26T07:58:03.150Z,34.15
2018-09-26T08:00:31.642Z,32.04
2018-09-26T08:03:00.115Z,31.32
2018-09-26T08:05:29.650Z,30.79
2018-09-26T08:07:58.187Z,32.57
2018-09-26T08:10:26.715Z,30.72
2018-09-26T08:12:55.133Z,31.55
2018-09-26T08:15:23.537Z,30.59
2018-09-26T08:17:52.063Z,30.05
2018-09-26T08:20:20.565Z,28.29
2018-09-26T08:22:48.950Z,28.52
2018-09-26T08:25:17.360Z,26.67
2018-09-26T08:27:45.935Z,27.58
2018-09-26T08:30:14.358Z,25.92
2018-09-26T08:32:42.782Z,26.60
2018-09-26T08:35:11.256Z,27.81
2018-09-26T08:37:39.655Z,27.12
2018-09-26T08:40:08.094Z,26.57
2018-09-26T08:42:36.499Z,26.06
2018-09-26T08:45:04.960Z,25.39
2018-09-26T08:47:33.446Z,25.07
2018-09-26T08:50:01.887Z,24.24
2018-09-26T08:52:31.347Z,23.16
2018-09-26T08:54:59.762Z,21.68
2018-09-26T08:57:29.201Z,21.75
2018-09-26T08:59:57.743Z,21.19
2018-09-26T09:02:26.158Z,20.56
2018-09-26T09:04:54.793Z,20.83
2018-09-26T09:07:25.752Z,19.73
2018-09-26T09:09:54.084Z,19.35
2018-09-26T09:12:22.444Z,19.48
2018-09-26T09:14:50.932Z,21.92
2018-09-26T09:17:19.035Z,21.39
2018-09-26T09:19:47.379Z,21.88
2018-09-26T09:22:15.775Z,22.14
2018-09-26T09:24:44.177Z,21.68
2018-09-26T09:27:12.663Z,21.11
2018-09-26T09:29:41.000Z,22.23
2018-09-26T09:32:09.368Z,23.71
2018-09-26T09:34:37.711Z,22.80
2018-09-26T09:37:06.136Z,21.92
2018-09-26T09:39:34.515Z,23.51
2018-09-26T09:42:02.899Z,22.82
2018-09-26T09:44:31.452Z,22.86
2018-09-26T09:46:59.844Z,22.03
2018-09-26T09:49:28.270Z,22.02
2018-09-26T09:51:56.655Z,20.78
2018-09-26T09:54:25.271Z,21.60
2018-09-26T09:56:53.639Z,21.94
2018-09-26T09:59:22.083Z,20.75
2018-09-26T10:01:50.460Z,20.69
2018-09-26T10:04:18.846Z,20.70
2018-09-26T10:06:47.213Z,21.84
2018-09-26T10:09:15.669Z,22.02
2018-09-26T10:11:44.031Z,20.23
2018-09-26T10:14:12.463Z,21.07
2018-09-26T10:16:40.821Z,20.27
2018-09-26T10:19:09.249Z,20.89
2018-09-26T10:21:37.622Z,21.35
2018-09-26T10:24:06.208Z,21.98
2018-09-26T10:26:34.656Z,21.45
2018-09-26T10:29:03.003Z,23.39
2018-09-26T10:31:31.443Z,23.76
2018-09-26T10:33:59.839Z,22.73
2018-09-26T10:36:28.211Z,22.83
2018-09-26T10:38:56.611Z,22.15
2018-09-26T10:41:25.066Z,21.61
2018-09-26T10:43:53.488Z,22.02
2018-09-26T10:46:21.878Z,20.60
2018-09-26T10:48:50.212Z,20.16
2018-09-26T10:51:18.619Z,19.20
2018-09-26T10:53:47.008Z,18.93
2018-09-26T10:56:17.414Z,22.24
2018-09-26T10:58:45.703Z,21.76
2018-09-26T11:01:13.998Z,21.70
2018-09-26T11:03:42.333Z,21.85
2018-09-26T11:06:10.651Z,21.30
2018-09-26T11:08:39.014Z,20.47
2018-09-26T11:11:07.761Z,21.76
2018-09-26T11:13:36.142Z,21.52
2018-09-26T11:16:04.673Z,20.81
2018-09-26T11:18:32.957Z,21.06
2018-09-26T11:21:01.373Z,18.96
2018-09-26T11:23:29.726Z,20.10
2018-09-26T11:25:58.558Z,20.07
2018-09-26T11:28:27.038Z,20.32
2018-09-26T11:30:55.351Z,19.39
2018-09-26T11:33:24.726Z,20.17
2018-09-26T11:35:53.020Z,20.61
2018-09-26T11:38:21.382Z,20.77
2018-09-26T11:40:49.876Z,20.82
2018-09-26T11:43:18.517Z,20.63
2018-09-26T11:45:46.937Z,19.90
2018-09-26T11:48:15.241Z,19.55
2018-09-26T11:50:45.152Z,18.53
2018-09-26T11:53:13.551Z,18.69
2018-09-26T11:55:42.163Z,18.61
2018-09-26T11:58:10.683Z,19.52
2018-09-26T12:00:39.210Z,17.57
2018-09-26T12:03:08.747Z,19.82
2018-09-26T12:05:37.264Z,18.77
2018-09-26T12:08:07.566Z,19.20
2018-09-26T12:10:36.163Z,19.65
2018-09-26T12:13:05.090Z,20.49
2018-09-26T12:15:33.405Z,19.79
2018-09-26T12:18:01.699Z,20.59
2018-09-26T12:20:30.024Z,20.42
2018-09-26T12:25:51.112Z,20.73
2018-09-26T12:28:22.528Z,21.14
2018-09-26T12:30:52.361Z,21.83
2018-09-26T12:33:20.780Z,23.54
2018-09-26T12:35:54.794Z,24.39
2018-09-26T12:38:23.349Z,23.17
2018-09-26T12:40:51.899Z,23.96
2018-09-26T12:43:20.321Z,23.95
2018-09-26T12:45:48.738Z,23.66
2018-09-26T12:48:19.641Z,21.26
2018-09-26T12:50:48.562Z,22.59
2018-09-26T12:53:17.063Z,22.62
2018-09-26T12:55:45.560Z,22.24
2018-09-26T12:58:13.958Z,22.32
2018-09-26T13:00:42.398Z,21.32
2018-09-26T13:03:10.767Z,22.62
2018-09-26T13:05:39.087Z,21.90
2018-09-26T13:08:07.687Z,22.71
2018-09-26T13:10:35.928Z,22.75
2018-09-26T13:13:04.280Z,19.87
2018-09-26T13:15:32.548Z,19.68
2018-09-26T13:18:00.820Z,20.08
2018-09-26T13:20:29.142Z,21.20
2018-09-26T13:22:57.484Z,22.44
2018-09-26T13:25:25.889Z,22.11
2018-09-26T13:27:54.200Z,22.21
2018-09-26T13:30:22.547Z,21.43
2018-09-26T13:32:50.838Z,22.19
2018-09-26T13:35:19.139Z,22.28
2018-09-26T13:37:47.480Z,22.18
2018-09-26T13:40:16.052Z,22.58
2018-09-26T13:42:44.483Z,23.58
2018-09-26T13:45:12.941Z,23.44
2018-09-26T13:47:41.299Z,22.77
2018-09-26T13:50:10.626Z,22.30
2018-09-26T13:52:39.099Z,22.57
2018-09-26T13:55:08.319Z,23.38
2018-09-26T13:57:36.697Z,22.97
2018-09-26T14:00:05.949Z,23.97
2018-09-26T14:02:34.539Z,23.89
2018-09-26T14:05:03.181Z,22.66
2018-09-26T14:07:37.698Z,22.85
2018-09-26T14:10:06.011Z,22.60
2018-09-26T14:12:34.365Z,22.68
2018-09-26T14:15:02.785Z,22.81
2018-09-26T14:17:31.085Z,22.48
2018-09-26T14:20:16.386Z,22.75
2018-09-26T14:22:45.658Z,22.93
2018-09-26T14:28:01.236Z,22.29
2018-09-26T14:30:31.046Z,22.61
2018-09-26T14:33:01.131Z,22.10
2018-09-26T14:35:30.052Z,21.20
2018-09-26T14:38:01.433Z,21.35
2018-09-26T14:40:30.959Z,21.80
2018-09-26T14:43:01.976Z,21.68
2018-09-26T14:45:31.869Z,20.48
2018-09-26T14:48:00.376Z,20.52
2018-09-26T14:50:28.961Z,19.73
2018-09-26T14:52:58.689Z,20.77
2018-09-26T14:55:32.916Z,20.56
2018-09-26T14:58:02.302Z,22.02
2018-09-26T15:00:38.081Z,22.37
2018-09-26T15:03:07.182Z,22.11
2018-09-26T15:05:39.958Z,22.50
2018-09-26T15:08:08.891Z,22.06
2018-09-26T15:10:37.471Z,21.65
2018-09-26T15:13:06.137Z,22.89
2018-09-26T15:15:34.812Z,21.13
2018-09-26T15:18:03.447Z,21.97
2018-09-26T15:20:32.053Z,21.90
2018-09-26T15:23:00.684Z,22.87
2018-09-26T15:25:29.304Z,21.62
2018-09-26T15:27:58.007Z,21.58
2018-09-26T15:30:26.580Z,23.44
2018-09-26T15:32:56.163Z,22.27
2018-09-26T15:35:24.687Z,23.46
2018-09-26T15:37:53.118Z,22.92
2018-09-26T15:40:21.590Z,23.96
2018-09-26T15:42:50.092Z,23.18
2018-09-26T15:45:18.715Z,24.58
2018-09-26T15:47:47.181Z,24.83
2018-09-26T15:50:15.774Z,24.27
2018-09-26T15:52:45.355Z,24.54
2018-09-26T15:55:14.367Z,24.36
2018-09-26T16:00:24.616Z,24.65
2018-09-26T16:02:52.994Z,25.00
2018-09-26T16:05:23.691Z,25.72
2018-09-26T16:07:52.421Z,25.88
2018-09-26T16:10:21.231Z,25.70
2018-09-26T16:12:50.923Z,26.41
2018-09-26T16:15:19.608Z,26.58
2018-09-26T16:17:48.071Z,26.66
2018-09-26T16:20:16.912Z,25.86
2018-09-26T16:22:45.468Z,27.13
2018-09-26T16:25:13.897Z,28.21
2018-09-26T16:27:42.187Z,28.32
2018-09-26T16:30:10.843Z,27.73
2018-09-26T16:32:39.179Z,26.72
2018-09-26T16:35:07.548Z,27.57
2018-09-26T16:37:35.834Z,27.20
2018-09-26T16:40:04.332Z,26.63
2018-09-26T16:42:32.765Z,27.13
2018-09-26T16:45:01.079Z,26.88
2018-09-26T16:47:29.363Z,27.18
2018-09-26T16:49:57.849Z,27.69
2018-09-26T16:52:26.341Z,29.00
2018-09-26T16:54:54.510Z,27.96
2018-09-26T16:57:22.824Z,28.29
2018-09-26T16:59:51.140Z,29.03
2018-09-26T17:02:19.506Z,28.94
2018-09-26T17:04:49.140Z,27.78
2018-09-26T17:07:17.495Z,28.76
2018-09-26T17:09:45.849Z,29.80
2018-09-26T17:12:14.317Z,30.03
2018-09-26T17:14:42.738Z,29.85
2018-09-26T17:17:11.464Z,30.36
2018-09-26T17:19:39.935Z,30.57
2018-09-26T17:22:08.435Z,30.86
2018-09-26T17:24:36.935Z,30.52
2018-09-26T17:27:05.435Z,33.11
2018-09-26T17:29:33.926Z,30.38
2018-09-26T17:32:02.248Z,32.04
2018-09-26T17:34:31.121Z,31.64
2018-09-26T17:36:59.572Z,31.51
2018-09-26T17:39:28.060Z,31.64
2018-09-26T17:41:56.527Z,31.09
2018-09-26T17:44:25.051Z,31.81
2018-09-26T17:46:53.572Z,31.12
2018-09-26T17:49:22.054Z,31.32
2018-09-26T17:51:50.582Z,30.46
2018-09-26T17:54:18.993Z,31.18
2018-09-26T17:56:47.393Z,31.09
2018-09-26T17:59:15.947Z,30.34
2018-09-26T18:04:24.865Z,30.73
2018-09-26T18:06:56.158Z,30.95
2018-09-26T18:09:24.613Z,31.79
2018-09-26T18:11:53.020Z,30.93
2018-09-26T18:14:21.504Z,31.13
2018-09-26T18:16:50.987Z,30.45
2018-09-26T18:19:19.442Z,32.41
2018-09-26T18:21:47.947Z,32.53
2018-09-26T18:24:16.427Z,32.34
2018-09-26T18:26:44.895Z,32.69
2018-09-26T18:29:23.345Z,32.38
2018-09-26T18:31:52.040Z,30.34
2018-09-26T18:34:20.534Z,31.80
2018-09-26T18:36:48.999Z,33.66
2018-09-26T18:39:17.547Z,32.89
2018-09-26T18:41:45.988Z,29.91
2018-09-26T18:44:14.494Z,33.73
2018-09-26T18:46:43.975Z,35.00
2018-09-26T18:49:12.598Z,32.67
2018-09-26T18:51:41.005Z,32.02
2018-09-26T18:54:09.460Z,32.68
2018-09-26T18:59:21.603Z,30.82
2018-09-26T19:01:49.897Z,30.75
2018-09-26T19:04:19.771Z,31.64
2018-09-26T19:06:48.114Z,32.64
2018-09-26T19:09:16.424Z,32.01
2018-09-26T19:11:44.763Z,33.46
2018-09-26T19:14:13.075Z,31.86
2018-09-26T19:16:41.374Z,31.99
2018-09-26T19:19:09.680Z,33.19
2018-09-26T19:21:38.073Z,32.18
2018-09-26T19:24:06.410Z,32.67
2018-09-26T19:26:34.745Z,32.06
2018-09-26T19:29:03.057Z,31.83
2018-09-26T19:31:31.657Z,33.39
2018-09-26T19:34:00.385Z,32.51
2018-09-26T19:36:31.789Z,31.40
2018-09-26T19:39:00.057Z,32.85
2018-09-26T19:41:28.497Z,31.55
2018-09-26T19:43:56.898Z,33.57
2018-09-26T19:46:25.498Z,35.00
2018-09-26T19:48:53.937Z,33.52
2018-09-26T19:51:22.750Z,33.44
2018-09-26T19:53:51.325Z,33.67
2018-09-26T19:56:19.855Z,34.06
2018-09-26T19:58:49.887Z,34.33
2018-09-26T20:01:18.238Z,33.56
2018-09-26T20:03:46.746Z,33.68
2018-09-26T20:06:18.446Z,34.35
2018-09-26T20:08:47.128Z,32.08
2018-09-26T20:11:18.699Z,32.31
2018-09-26T20:13:47.211Z,32.87
2018-09-26T20:16:15.589Z,31.87
2018-09-26T20:18:44.232Z,34.27
2018-09-26T20:21:12.610Z,33.27
2018-09-26T20:23:40.979Z,32.97
2018-09-26T20:26:09.410Z,33.68
2018-09-26T20:28:37.748Z,32.64
2018-09-26T20:31:06.174Z,34.64
2018-09-26T20:33:34.463Z,32.46
2018-09-26T20:36:02.850Z,34.23
2018-09-26T20:38:31.214Z,33.10
2018-09-26T20:40:59.662Z,34.68
2018-09-26T20:43:28.010Z,32.60
2018-09-26T20:45:56.370Z,33.27
2018-09-26T20:48:24.704Z,33.15
2018-09-26T20:50:53.015Z,32.89
2018-09-26T20:53:21.319Z,32.77
2018-09-26T20:55:56.112Z,32.17
2018-09-26T20:58:24.496Z,33.41
2018-09-26T21:00:52.916Z,32.70
2018-09-26T21:03:21.410Z,32.50
2018-09-26T21:05:49.817Z,36.09
2018-09-26T21:08:18.254Z,36.02
2018-09-26T21:10:46.591Z,35.48
2018-09-26T21:13:14.983Z,35.22
2018-09-26T21:15:43.320Z,35.79
2018-09-26T21:18:11.694Z,35.78
2018-09-26T21:20:40.038Z,37.27
2018-09-26T21:23:08.444Z,36.02
2018-09-26T21:25:36.786Z,38.23
2018-09-26T21:28:05.137Z,37.06
2018-09-26T21:30:33.504Z,39.57
2018-09-26T21:33:01.904Z,36.17
2018-09-26T21:35:31.037Z,36.30
2018-09-26T21:37:59.439Z,38.04
2018-09-26T21:40:27.817Z,37.54
2018-09-26T21:42:56.175Z,36.60
2018-09-26T21:45:24.607Z,37.88
2018-09-26T21:47:52.945Z,37.15
2018-09-26T21:50:21.364Z,35.64
2018-09-26T21:52:50.224Z,37.48
2018-09-26T21:55:18.532Z,37.69
2018-09-26T21:57:46.927Z,38.61
2018-09-26T22:00:15.374Z,39.81
2018-09-26T22:02:43.752Z,38.46
2018-09-26T22:05:12.169Z,38.14
2018-09-26T22:07:40.513Z,40.55
2018-09-26T22:10:08.896Z,39.29
2018-09-26T22:12:37.224Z,39.13
2018-09-26T22:15:10.019Z,41.13
2018-09-26T22:17:38.446Z,39.21
2018-09-26T22:20:06.953Z,38.33
2018-09-26T22:22:35.364Z,39.34
2018-09-26T22:25:03.683Z,40.58
2018-09-26T22:27:32.101Z,38.32
2018-09-26T22:30:00.571Z,39.64
2018-09-26T22:32:29.003Z,41.03
2018-09-26T22:34:57.337Z,40.85
2018-09-26T22:37:25.651Z,40.42
2018-09-26T22:39:53.935Z,40.45
2018-09-26T22:42:22.607Z,39.88
2018-09-26T22:44:50.914Z,39.17
2018-09-26T22:47:19.247Z,38.34
2018-09-26T22:49:47.587Z,38.72
2018-09-26T22:52:15.943Z,38.45
2018-09-26T22:54:44.319Z,38.08
2018-09-26T22:57:12.682Z,36.97
2018-09-26T22:59:41.022Z,37.62
2018-09-26T23:02:09.354Z,37.28
2018-09-26T23:04:37.707Z,37.14
2018-09-26T23:07:06.107Z,37.43
2018-09-26T23:09:34.500Z,36.94
2018-09-26T23:12:03.187Z,36.58
2018-09-26T23:14:31.685Z,37.19
2018-09-26T23:17:00.392Z,37.16
2018-09-26T23:19:29.259Z,37.06
2018-09-26T23:21:58.060Z,38.07
2018-09-26T23:24:26.834Z,37.82
2018-09-26T23:26:55.610Z,39.51
2018-09-26T23:29:24.293Z,38.25
2018-09-26T23:31:53.063Z,39.08
2018-09-26T23:34:21.790Z,39.27
2018-09-26T23:36:50.567Z,38.57
2018-09-26T23:39:19.348Z,38.22
2018-09-26T23:41:48.008Z,38.08
2018-09-26T23:44:16.667Z,39.31
2018-09-26T23:46:45.428Z,37.92
2018-09-26T23:49:14.265Z,37.80
2018-09-26T23:51:43.127Z,38.56
2018-09-26T23:54:11.871Z,39.07
2018-09-26T23:56:40.630Z,37.71
2018-09-26T23:59:09.320Z,40.09
